sensor_id;sensor_type;location;lat;lon;timestamp;pressure;altitude;pressure_sealevel;temperature;humidity
72285;BME280;60220;53.552;10.092;2022-11-11T00:00:20;102338.78;;;12.76;69.07
72285;BME280;60220;53.552;10.092;2022-11-11T00:02:49;102348.53;;;12.98;68.24
72285;BME280;60220;53.552;10.092;2022-11-11T00:05:16;102350.78;;;12.13;70.33
72285;BME280;60220;53.552;10.092;2022-11-11T00:07:44;102350.16;;;12.66;68.90
72285;BME280;60220;53.552;10.092;2022-11-11T00:10:11;102345.81;;;12.77;68.92
72285;BME280;60220;53.552;10.092;2022-11-11T00:12:38;102354.44;;;12.42;69.90
72285;BME280;60220;53.552;10.092;2022-11-11T00:15:07;102346.50;;;12.36;69.88
72285;BME280;60220;53.552;10.092;2022-11-11T00:17:37;102348.94;;;12.00;71.91
72285;BME280;60220;53.552;10.092;2022-11-11T00:20:21;102350.63;;;11.92;71.88
72285;BME280;60220;53.552;10.092;2022-11-11T00:23:17;102337.59;;;12.08;71.82
72285;BME280;60220;53.552;10.092;2022-11-11T00:26:03;102334.25;;;12.40;70.25
72285;BME280;60220;53.552;10.092;2022-11-11T00:28:30;102341.00;;;11.94;72.05
72285;BME280;60220;53.552;10.092;2022-11-11T00:31:03;102340.41;;;12.43;70.00
72285;BME280;60220;53.552;10.092;2022-11-11T00:33:33;102349.13;;;12.30;70.84
72285;BME280;60220;53.552;10.092;2022-11-11T00:36:06;102349.91;;;12.17;71.15
72285;BME280;60220;53.552;10.092;2022-11-11T00:38:35;102344.00;;;12.67;69.87
72285;BME280;60220;53.552;10.092;2022-11-11T00:41:20;102340.25;;;12.16;71.67
72285;BME280;60220;53.552;10.092;2022-11-11T00:43:50;102336.59;;;11.93;72.09
72285;BME280;60220;53.552;10.092;2022-11-11T00:46:17;102328.81;;;12.08;72.10
72285;BME280;60220;53.552;10.092;2022-11-11T00:49:01;102329.63;;;11.98;71.93
72285;BME280;60220;53.552;10.092;2022-11-11T00:51:45;102327.16;;;12.24;71.83
72285;BME280;60220;53.552;10.092;2022-11-11T00:54:13;102337.84;;;12.54;70.34
72285;BME280;60220;53.552;10.092;2022-11-11T00:56:43;102339.63;;;12.64;70.16
72285;BME280;60220;53.552;10.092;2022-11-11T00:59:12;102340.44;;;12.45;70.19
72285;BME280;60220;53.552;10.092;2022-11-11T01:01:39;102340.16;;;11.99;72.23
72285;BME280;60220;53.552;10.092;2022-11-11T01:04:06;102344.78;;;12.43;70.59
72285;BME280;60220;53.552;10.092;2022-11-11T01:06:37;102336.91;;;12.44;70.36
72285;BME280;60220;53.552;10.092;2022-11-11T01:09:05;102343.06;;;12.45;71.08
72285;BME280;60220;53.552;10.092;2022-11-11T01:11:33;102340.47;;;12.62;70.38
72285;BME280;60220;53.552;10.092;2022-11-11T01:13:59;102343.97;;;12.55;70.75
72285;BME280;60220;53.552;10.092;2022-11-11T01:16:27;102344.06;;;12.79;70.03
72285;BME280;60220;53.552;10.092;2022-11-11T01:18:54;102354.44;;;12.41;71.24
72285;BME280;60220;53.552;10.092;2022-11-11T01:21:28;102348.41;;;12.60;70.41
72285;BME280;60220;53.552;10.092;2022-11-11T01:24:00;102357.84;;;12.20;72.11
72285;BME280;60220;53.552;10.092;2022-11-11T01:26:27;102355.44;;;12.64;70.45
72285;BME280;60220;53.552;10.092;2022-11-11T01:28:59;102369.31;;;12.31;71.92
72285;BME280;60220;53.552;10.092;2022-11-11T01:31:26;102366.47;;;11.98;72.11
72285;BME280;60220;53.552;10.092;2022-11-11T01:33:53;102364.06;;;12.40;71.62
72285;BME280;60220;53.552;10.092;2022-11-11T01:36:22;102358.19;;;13.05;69.31
72285;BME280;60220;53.552;10.092;2022-11-11T01:38:55;102350.88;;;12.31;71.61
72285;BME280;60220;53.552;10.092;2022-11-11T01:41:26;102345.59;;;12.28;71.60
72285;BME280;60220;53.552;10.092;2022-11-11T01:44:06;102347.06;;;11.84;73.40
72285;BME280;60220;53.552;10.092;2022-11-11T01:46:44;102348.28;;;12.37;72.38
72285;BME280;60220;53.552;10.092;2022-11-11T01:49:21;102344.84;;;12.52;71.51
72285;BME280;60220;53.552;10.092;2022-11-11T01:51:55;102344.88;;;12.63;70.75
72285;BME280;60220;53.552;10.092;2022-11-11T01:54:29;102350.25;;;12.87;69.86
72285;BME280;60220;53.552;10.092;2022-11-11T01:57:07;102336.16;;;12.79;69.93
72285;BME280;60220;53.552;10.092;2022-11-11T01:59:39;102337.91;;;12.69;70.17
72285;BME280;60220;53.552;10.092;2022-11-11T02:02:16;102337.78;;;12.48;71.17
72285;BME280;60220;53.552;10.092;2022-11-11T02:04:46;102332.59;;;12.60;70.76
72285;BME280;60220;53.552;10.092;2022-11-11T02:07:49;102330.63;;;12.21;72.09
72285;BME280;60220;53.552;10.092;2022-11-11T02:10:18;102337.03;;;12.73;70.35
72285;BME280;60220;53.552;10.092;2022-11-11T02:12:47;102332.66;;;12.90;69.73
72285;BME280;60220;53.552;10.092;2022-11-11T02:15:33;102331.72;;;12.66;70.10
72285;BME280;60220;53.552;10.092;2022-11-11T02:18:03;102326.41;;;12.54;70.73
72285;BME280;60220;53.552;10.092;2022-11-11T02:20:35;102320.75;;;11.84;73.63
72285;BME280;60220;53.552;10.092;2022-11-11T02:23:07;102325.13;;;11.86;73.24
72285;BME280;60220;53.552;10.092;2022-11-11T02:25:39;102321.91;;;12.30;72.24
72285;BME280;60220;53.552;10.092;2022-11-11T02:28:24;102317.16;;;11.76;73.80
72285;BME280;60220;53.552;10.092;2022-11-11T02:31:23;102317.91;;;11.61;73.85
72285;BME280;60220;53.552;10.092;2022-11-11T02:33:51;102315.56;;;11.96;73.11
72285;BME280;60220;53.552;10.092;2022-11-11T02:36:21;102314.03;;;12.37;71.39
72285;BME280;60220;53.552;10.092;2022-11-11T02:38:49;102311.09;;;11.80;73.01
72285;BME280;60220;53.552;10.092;2022-11-11T02:41:17;102306.97;;;12.24;72.26
72285;BME280;60220;53.552;10.092;2022-11-11T02:44:05;102302.56;;;12.23;71.46
72285;BME280;60220;53.552;10.092;2022-11-11T02:46:36;102299.75;;;11.90;72.61
72285;BME280;60220;53.552;10.092;2022-11-11T02:49:05;102298.53;;;11.51;74.37
72285;BME280;60220;53.552;10.092;2022-11-11T02:51:36;102308.25;;;11.58;74.02
72285;BME280;60220;53.552;10.092;2022-11-11T02:54:03;102313.06;;;12.14;72.11
72285;BME280;60220;53.552;10.092;2022-11-11T02:56:31;102317.28;;;11.91;73.12
72285;BME280;60220;53.552;10.092;2022-11-11T02:59:15;102322.41;;;11.73;73.68
72285;BME280;60220;53.552;10.092;2022-11-11T03:04:47;102338.66;;;12.45;71.39
72285;BME280;60220;53.552;10.092;2022-11-11T03:07:18;102344.06;;;12.79;69.94
72285;BME280;60220;53.552;10.092;2022-11-11T03:09:51;102342.88;;;12.16;72.10
72285;BME280;60220;53.552;10.092;2022-11-11T03:12:20;102345.56;;;12.22;72.11
72285;BME280;60220;53.552;10.092;2022-11-11T03:14:48;102342.91;;;12.15;72.45
72285;BME280;60220;53.552;10.092;2022-11-11T03:17:37;102348.16;;;12.21;72.34
72285;BME280;60220;53.552;10.092;2022-11-11T03:20:12;102352.31;;;11.82;73.57
72285;BME280;60220;53.552;10.092;2022-11-11T03:22:59;102357.75;;;12.05;72.33
72285;BME280;60220;53.552;10.092;2022-11-11T03:25:31;102355.75;;;11.74;73.76
72285;BME280;60220;53.552;10.092;2022-11-11T03:28:08;102351.69;;;12.21;72.00
72285;BME280;60220;53.552;10.092;2022-11-11T03:30:35;102358.88;;;11.33;74.84
72285;BME280;60220;53.552;10.092;2022-11-11T03:33:03;102353.34;;;12.05;72.95
72285;BME280;60220;53.552;10.092;2022-11-11T03:35:33;102354.22;;;12.03;72.88
72285;BME280;60220;53.552;10.092;2022-11-11T03:38:02;102358.81;;;12.39;70.73
72285;BME280;60220;53.552;10.092;2022-11-11T03:40:41;102358.44;;;11.81;73.44
72285;BME280;60220;53.552;10.092;2022-11-11T03:43:11;102361.94;;;11.82;72.61
72285;BME280;60220;53.552;10.092;2022-11-11T03:45:38;102366.78;;;11.36;73.80
72285;BME280;60220;53.552;10.092;2022-11-11T03:48:08;102362.91;;;11.90;72.48
72285;BME280;60220;53.552;10.092;2022-11-11T03:50:44;102371.88;;;12.22;71.83
72285;BME280;60220;53.552;10.092;2022-11-11T03:53:18;102366.72;;;12.40;70.79
72285;BME280;60220;53.552;10.092;2022-11-11T03:55:50;102372.75;;;12.18;70.55
72285;BME280;60220;53.552;10.092;2022-11-11T03:58:18;102370.09;;;12.15;72.15
72285;BME280;60220;53.552;10.092;2022-11-11T04:00:48;102374.84;;;11.54;74.24
72285;BME280;60220;53.552;10.092;2022-11-11T04:03:18;102374.63;;;11.33;74.26
72285;BME280;60220;53.552;10.092;2022-11-11T04:06:04;102381.91;;;11.60;74.05
72285;BME280;60220;53.552;10.092;2022-11-11T04:08:48;102380.38;;;11.82;72.90
72285;BME280;60220;53.552;10.092;2022-11-11T04:11:35;102385.47;;;11.66;73.56
72285;BME280;60220;53.552;10.092;2022-11-11T04:14:09;102381.53;;;11.22;74.18
72285;BME280;60220;53.552;10.092;2022-11-11T04:16:53;102381.81;;;11.51;73.62
72285;BME280;60220;53.552;10.092;2022-11-11T04:19:20;102374.59;;;12.34;71.05
72285;BME280;60220;53.552;10.092;2022-11-11T04:22:04;102380.84;;;11.41;74.20
72285;BME280;60220;53.552;10.092;2022-11-11T04:24:31;102387.16;;;11.61;73.71
72285;BME280;60220;53.552;10.092;2022-11-11T04:27:16;102386.69;;;12.05;71.79
72285;BME280;60220;53.552;10.092;2022-11-11T04:29:45;102392.59;;;11.75;73.17
72285;BME280;60220;53.552;10.092;2022-11-11T04:32:14;102392.72;;;11.92;71.48
72285;BME280;60220;53.552;10.092;2022-11-11T04:35:02;102397.38;;;11.28;74.79
72285;BME280;60220;53.552;10.092;2022-11-11T04:37:32;102389.78;;;10.75;76.61
72285;BME280;60220;53.552;10.092;2022-11-11T04:39:59;102396.06;;;10.91;76.19
72285;BME280;60220;53.552;10.092;2022-11-11T04:42:46;102392.34;;;11.49;74.68
72285;BME280;60220;53.552;10.092;2022-11-11T04:45:14;102408.84;;;12.34;71.36
72285;BME280;60220;53.552;10.092;2022-11-11T04:47:56;102407.88;;;11.25;75.08
72285;BME280;60220;53.552;10.092;2022-11-11T04:50:26;102402.47;;;11.13;75.05
72285;BME280;60220;53.552;10.092;2022-11-11T04:52:53;102394.09;;;11.49;73.39
72285;BME280;60220;53.552;10.092;2022-11-11T04:55:20;102398.16;;;11.21;73.88
72285;BME280;60220;53.552;10.092;2022-11-11T04:58:07;102384.56;;;11.60;73.73
72285;BME280;60220;53.552;10.092;2022-11-11T05:00:38;102392.88;;;11.15;74.22
72285;BME280;60220;53.552;10.092;2022-11-11T05:03:06;102393.09;;;11.41;74.00
72285;BME280;60220;53.552;10.092;2022-11-11T05:05:41;102395.59;;;11.27;74.04
72285;BME280;60220;53.552;10.092;2022-11-11T05:08:26;102395.69;;;11.33;74.50
72285;BME280;60220;53.552;10.092;2022-11-11T05:11:13;102395.31;;;11.84;72.92
72285;BME280;60220;53.552;10.092;2022-11-11T05:13:40;102401.09;;;11.51;72.95
72285;BME280;60220;53.552;10.092;2022-11-11T05:16:28;102390.81;;;10.90;76.18
72285;BME280;60220;53.552;10.092;2022-11-11T05:19:16;102385.63;;;10.94;76.32
72285;BME280;60220;53.552;10.092;2022-11-11T05:22:07;102376.25;;;11.19;75.56
72285;BME280;60220;53.552;10.092;2022-11-11T05:24:34;102387.09;;;11.52;74.04
72285;BME280;60220;53.552;10.092;2022-11-11T05:27:19;102378.03;;;11.23;75.37
72285;BME280;60220;53.552;10.092;2022-11-11T05:29:46;102375.09;;;10.94;76.19
72285;BME280;60220;53.552;10.092;2022-11-11T05:32:17;102372.72;;;11.17;75.31
72285;BME280;60220;53.552;10.092;2022-11-11T05:34:44;102380.03;;;11.45;74.09
72285;BME280;60220;53.552;10.092;2022-11-11T05:37:11;102386.25;;;11.55;73.42
72285;BME280;60220;53.552;10.092;2022-11-11T05:39:38;102387.22;;;11.68;72.84
72285;BME280;60220;53.552;10.092;2022-11-11T05:42:05;102396.53;;;11.32;74.69
72285;BME280;60220;53.552;10.092;2022-11-11T05:44:32;102388.88;;;11.56;73.66
72285;BME280;60220;53.552;10.092;2022-11-11T05:46:58;102389.19;;;11.87;72.33
72285;BME280;60220;53.552;10.092;2022-11-11T05:49:27;102386.31;;;11.62;73.55
72285;BME280;60220;53.552;10.092;2022-11-11T05:51:56;102393.53;;;11.80;72.67
72285;BME280;60220;53.552;10.092;2022-11-11T05:54:23;102391.09;;;12.11;71.68
72285;BME280;60220;53.552;10.092;2022-11-11T05:56:50;102398.84;;;11.88;72.46
72285;BME280;60220;53.552;10.092;2022-11-11T05:59:17;102403.25;;;11.89;72.23
72285;BME280;60220;53.552;10.092;2022-11-11T06:01:47;102392.59;;;11.74;72.99
72285;BME280;60220;53.552;10.092;2022-11-11T06:04:16;102392.19;;;11.37;74.63
72285;BME280;60220;53.552;10.092;2022-11-11T06:06:44;102393.72;;;11.14;75.62
72285;BME280;60220;53.552;10.092;2022-11-11T06:09:11;102401.22;;;11.63;73.97
72285;BME280;60220;53.552;10.092;2022-11-11T06:11:38;102407.19;;;11.47;73.64
72285;BME280;60220;53.552;10.092;2022-11-11T06:14:05;102400.28;;;11.55;74.26
72285;BME280;60220;53.552;10.092;2022-11-11T06:16:32;102413.28;;;11.40;74.84
72285;BME280;60220;53.552;10.092;2022-11-11T06:18:59;102414.28;;;11.56;73.61
72285;BME280;60220;53.552;10.092;2022-11-11T06:21:29;102419.84;;;11.83;73.24
72285;BME280;60220;53.552;10.092;2022-11-11T06:23:57;102427.38;;;11.48;73.74
72285;BME280;60220;53.552;10.092;2022-11-11T06:26:24;102425.91;;;11.76;73.52
72285;BME280;60220;53.552;10.092;2022-11-11T06:28:52;102424.78;;;11.50;74.63
72285;BME280;60220;53.552;10.092;2022-11-11T06:31:20;102428.19;;;11.40;75.46
72285;BME280;60220;53.552;10.092;2022-11-11T06:33:47;102433.06;;;11.91;73.02
72285;BME280;60220;53.552;10.092;2022-11-11T06:36:16;102427.34;;;11.44;74.47
72285;BME280;60220;53.552;10.092;2022-11-11T06:38:43;102434.03;;;11.16;76.17
72285;BME280;60220;53.552;10.092;2022-11-11T06:41:13;102431.56;;;11.31;75.94
72285;BME280;60220;53.552;10.092;2022-11-11T06:43:41;102439.66;;;11.48;74.34
72285;BME280;60220;53.552;10.092;2022-11-11T06:46:15;102442.59;;;11.75;74.35
72285;BME280;60220;53.552;10.092;2022-11-11T06:48:43;102446.31;;;11.17;75.42
72285;BME280;60220;53.552;10.092;2022-11-11T06:51:12;102447.25;;;11.22;76.23
72285;BME280;60220;53.552;10.092;2022-11-11T06:53:39;102459.91;;;11.58;74.93
72285;BME280;60220;53.552;10.092;2022-11-11T06:56:07;102460.81;;;11.58;74.78
72285;BME280;60220;53.552;10.092;2022-11-11T06:58:35;102469.44;;;11.45;75.44
72285;BME280;60220;53.552;10.092;2022-11-11T07:01:03;102472.69;;;11.26;75.83
72285;BME280;60220;53.552;10.092;2022-11-11T07:03:31;102477.75;;;11.08;76.76
72285;BME280;60220;53.552;10.092;2022-11-11T07:05:59;102472.94;;;10.76;78.03
72285;BME280;60220;53.552;10.092;2022-11-11T07:08:26;102477.91;;;11.20;76.38
72285;BME280;60220;53.552;10.092;2022-11-11T07:10:53;102479.44;;;11.06;77.11
72285;BME280;60220;53.552;10.092;2022-11-11T07:13:20;102478.41;;;10.90;77.71
72285;BME280;60220;53.552;10.092;2022-11-11T07:15:48;102481.72;;;10.78;76.78
72285;BME280;60220;53.552;10.092;2022-11-11T07:18:15;102489.59;;;10.75;78.22
72285;BME280;60220;53.552;10.092;2022-11-11T07:20:42;102492.69;;;11.12;76.27
72285;BME280;60220;53.552;10.092;2022-11-11T07:23:11;102492.16;;;11.40;76.01
72285;BME280;60220;53.552;10.092;2022-11-11T07:25:38;102496.00;;;10.96;77.87
72285;BME280;60220;53.552;10.092;2022-11-11T07:28:05;102491.00;;;11.15;76.86
72285;BME280;60220;53.552;10.092;2022-11-11T07:30:32;102487.44;;;11.13;76.09
72285;BME280;60220;53.552;10.092;2022-11-11T07:33:00;102487.25;;;10.98;78.13
72285;BME280;60220;53.552;10.092;2022-11-11T07:35:27;102495.59;;;11.36;75.59
72285;BME280;60220;53.552;10.092;2022-11-11T07:37:53;102495.69;;;11.42;75.53
72285;BME280;60220;53.552;10.092;2022-11-11T07:40:20;102501.00;;;10.79;77.90
72285;BME280;60220;53.552;10.092;2022-11-11T07:42:47;102503.03;;;11.01;77.90
72285;BME280;60220;53.552;10.092;2022-11-11T07:45:16;102508.31;;;11.01;77.06
72285;BME280;60220;53.552;10.092;2022-11-11T07:47:43;102498.28;;;11.39;78.08
72285;BME280;60220;53.552;10.092;2022-11-11T07:50:14;102513.00;;;10.60;79.39
72285;BME280;60220;53.552;10.092;2022-11-11T07:52:47;102503.28;;;11.18;78.52
72285;BME280;60220;53.552;10.092;2022-11-11T07:55:14;102502.97;;;11.64;76.42
72285;BME280;60220;53.552;10.092;2022-11-11T07:57:41;102506.38;;;11.57;76.62
72285;BME280;60220;53.552;10.092;2022-11-11T08:00:11;102509.91;;;11.61;76.89
72285;BME280;60220;53.552;10.092;2022-11-11T08:02:45;102505.72;;;11.06;77.83
72285;BME280;60220;53.552;10.092;2022-11-11T08:05:13;102526.66;;;11.68;77.40
72285;BME280;60220;53.552;10.092;2022-11-11T08:07:43;102525.03;;;11.08;78.68
72285;BME280;60220;53.552;10.092;2022-11-11T08:10:10;102528.28;;;11.58;77.99
72285;BME280;60220;53.552;10.092;2022-11-11T08:12:39;102526.28;;;12.17;75.33
72285;BME280;60220;53.552;10.092;2022-11-11T08:15:25;102528.84;;;12.05;75.42
72285;BME280;60220;53.552;10.092;2022-11-11T08:17:52;102525.13;;;11.85;76.11
72285;BME280;60220;53.552;10.092;2022-11-11T08:20:23;102527.22;;;11.42;76.54
72285;BME280;60220;53.552;10.092;2022-11-11T08:22:49;102533.97;;;11.19;78.48
72285;BME280;60220;53.552;10.092;2022-11-11T08:25:19;102533.78;;;11.07;79.14
72285;BME280;60220;53.552;10.092;2022-11-11T08:27:47;102530.63;;;11.32;78.30
72285;BME280;60220;53.552;10.092;2022-11-11T08:30:14;102537.66;;;11.36;77.98
72285;BME280;60220;53.552;10.092;2022-11-11T08:32:41;102527.94;;;12.03;75.45
72285;BME280;60220;53.552;10.092;2022-11-11T08:35:07;102544.88;;;12.35;75.19
72285;BME280;60220;53.552;10.092;2022-11-11T08:37:35;102550.38;;;12.60;72.84
72285;BME280;60220;53.552;10.092;2022-11-11T08:40:03;102554.09;;;11.91;74.98
72285;BME280;60220;53.552;10.092;2022-11-11T08:42:30;102557.59;;;11.87;76.74
72285;BME280;60220;53.552;10.092;2022-11-11T08:44:56;102555.94;;;11.95;75.25
72285;BME280;60220;53.552;10.092;2022-11-11T08:47:26;102553.59;;;11.48;77.17
72285;BME280;60220;53.552;10.092;2022-11-11T08:49:52;102556.19;;;12.22;75.16
72285;BME280;60220;53.552;10.092;2022-11-11T08:52:19;102565.53;;;11.91;74.61
72285;BME280;60220;53.552;10.092;2022-11-11T08:54:47;102555.31;;;11.46;76.66
72285;BME280;60220;53.552;10.092;2022-11-11T08:57:14;102559.66;;;11.41;77.45
72285;BME280;60220;53.552;10.092;2022-11-11T08:59:43;102564.75;;;12.00;75.04
72285;BME280;60220;53.552;10.092;2022-11-11T09:02:12;102555.50;;;11.60;76.23
72285;BME280;60220;53.552;10.092;2022-11-11T09:04:46;102563.09;;;11.37;77.19
72285;BME280;60220;53.552;10.092;2022-11-11T09:07:13;102567.69;;;11.53;77.70
72285;BME280;60220;53.552;10.092;2022-11-11T09:09:40;102587.84;;;10.90;78.62
72285;BME280;60220;53.552;10.092;2022-11-11T09:12:08;102568.72;;;11.64;77.14
72285;BME280;60220;53.552;10.092;2022-11-11T09:14:35;102577.44;;;10.40;81.17
72285;BME280;60220;53.552;10.092;2022-11-11T09:17:01;102594.81;;;10.88;80.38
72285;BME280;60220;53.552;10.092;2022-11-11T09:19:28;102591.53;;;11.01;80.08
72285;BME280;60220;53.552;10.092;2022-11-11T09:21:57;102593.22;;;10.97;78.89
72285;BME280;60220;53.552;10.092;2022-11-11T09:24:24;102598.53;;;11.02;79.09
72285;BME280;60220;53.552;10.092;2022-11-11T09:26:51;102592.63;;;11.83;77.14
72285;BME280;60220;53.552;10.092;2022-11-11T09:29:21;102592.81;;;11.30;78.84
72285;BME280;60220;53.552;10.092;2022-11-11T09:31:48;102598.34;;;11.51;77.15
72285;BME280;60220;53.552;10.092;2022-11-11T09:34:14;102592.53;;;11.77;76.48
72285;BME280;60220;53.552;10.092;2022-11-11T09:36:42;102596.94;;;11.76;75.38
72285;BME280;60220;53.552;10.092;2022-11-11T09:39:08;102604.72;;;11.69;76.97
72285;BME280;60220;53.552;10.092;2022-11-11T09:41:46;102611.69;;;11.66;76.41
72285;BME280;60220;53.552;10.092;2022-11-11T09:44:25;102609.78;;;10.93;79.13
72285;BME280;60220;53.552;10.092;2022-11-11T09:47:03;102603.50;;;11.44;77.62
72285;BME280;60220;53.552;10.092;2022-11-11T09:49:49;102605.09;;;10.72;79.95
72285;BME280;60220;53.552;10.092;2022-11-11T09:52:18;102615.81;;;10.85;80.53
72285;BME280;60220;53.552;10.092;2022-11-11T09:54:51;102614.13;;;10.90;80.92
72285;BME280;60220;53.552;10.092;2022-11-11T09:57:26;102607.19;;;11.56;77.27
72285;BME280;60220;53.552;10.092;2022-11-11T10:00:00;102614.50;;;11.14;78.89
72285;BME280;60220;53.552;10.092;2022-11-11T10:02:34;102613.34;;;10.97;79.89
72285;BME280;60220;53.552;10.092;2022-11-11T10:05:08;102612.56;;;11.67;77.26
72285;BME280;60220;53.552;10.092;2022-11-11T10:07:50;102612.00;;;11.23;78.29
72285;BME280;60220;53.552;10.092;2022-11-11T10:10:28;102618.72;;;11.68;76.94
72285;BME280;60220;53.552;10.092;2022-11-11T10:12:57;102620.28;;;11.53;77.82
72285;BME280;60220;53.552;10.092;2022-11-11T10:15:33;102624.75;;;10.96;78.52
72285;BME280;60220;53.552;10.092;2022-11-11T10:18:14;102622.94;;;11.56;76.78
72285;BME280;60220;53.552;10.092;2022-11-11T10:20:49;102628.63;;;11.22;78.09
72285;BME280;60220;53.552;10.092;2022-11-11T10:23:24;102611.91;;;11.82;75.72
72285;BME280;60220;53.552;10.092;2022-11-11T10:25:54;102623.00;;;11.59;75.98
72285;BME280;60220;53.552;10.092;2022-11-11T10:28:27;102626.72;;;11.74;75.33
72285;BME280;60220;53.552;10.092;2022-11-11T10:30:58;102621.06;;;10.85;78.71
72285;BME280;60220;53.552;10.092;2022-11-11T10:33:29;102622.75;;;11.40;76.34
72285;BME280;60220;53.552;10.092;2022-11-11T10:36:00;102625.53;;;11.50;75.45
72285;BME280;60220;53.552;10.092;2022-11-11T10:38:34;102630.31;;;11.80;75.60
72285;BME280;60220;53.552;10.092;2022-11-11T10:41:10;102633.25;;;11.38;75.80
72285;BME280;60220;53.552;10.092;2022-11-11T10:43:44;102629.59;;;11.29;75.95
72285;BME280;60220;53.552;10.092;2022-11-11T10:46:16;102630.75;;;12.18;73.30
72285;BME280;60220;53.552;10.092;2022-11-11T10:48:50;102622.75;;;11.41;74.44
72285;BME280;60220;53.552;10.092;2022-11-11T10:51:21;102640.31;;;11.42;75.60
72285;BME280;60220;53.552;10.092;2022-11-11T10:53:56;102635.47;;;11.73;74.55
72285;BME280;60220;53.552;10.092;2022-11-11T10:56:28;102632.34;;;12.05;72.35
72285;BME280;60220;53.552;10.092;2022-11-11T10:59:01;102633.22;;;11.35;75.33
72285;BME280;60220;53.552;10.092;2022-11-11T11:01:35;102642.84;;;11.36;74.81
72285;BME280;60220;53.552;10.092;2022-11-11T11:04:09;102645.41;;;10.76;77.34
72285;BME280;60220;53.552;10.092;2022-11-11T11:06:43;102629.25;;;11.71;74.01
72285;BME280;60220;53.552;10.092;2022-11-11T11:09:14;102625.44;;;11.44;74.58
72285;BME280;60220;53.552;10.092;2022-11-11T11:11:47;102629.97;;;11.54;74.04
72285;BME280;60220;53.552;10.092;2022-11-11T11:14:20;102630.25;;;11.74;73.70
72285;BME280;60220;53.552;10.092;2022-11-11T11:16:52;102632.69;;;11.00;76.10
72285;BME280;60220;53.552;10.092;2022-11-11T11:19:22;102633.28;;;11.40;75.23
72285;BME280;60220;53.552;10.092;2022-11-11T11:21:52;102627.38;;;10.97;76.13
72285;BME280;60220;53.552;10.092;2022-11-11T11:24:24;102628.81;;;11.34;75.60
72285;BME280;60220;53.552;10.092;2022-11-11T11:26:54;102641.03;;;11.32;74.89
72285;BME280;60220;53.552;10.092;2022-11-11T11:29:26;102633.22;;;11.35;75.61
72285;BME280;60220;53.552;10.092;2022-11-11T11:31:55;102634.81;;;11.26;76.10
72285;BME280;60220;53.552;10.092;2022-11-11T11:34:45;102637.53;;;11.32;75.42
72285;BME280;60220;53.552;10.092;2022-11-11T11:37:12;102644.00;;;10.95;76.43
72285;BME280;60220;53.552;10.092;2022-11-11T11:39:39;102636.25;;;11.65;74.70
72285;BME280;60220;53.552;10.092;2022-11-11T11:42:06;102638.06;;;11.70;73.81
72285;BME280;60220;53.552;10.092;2022-11-11T11:44:34;102645.34;;;11.27;75.31
72285;BME280;60220;53.552;10.092;2022-11-11T11:47:13;102643.47;;;11.18;75.44
72285;BME280;60220;53.552;10.092;2022-11-11T11:50:06;102641.59;;;11.10;76.39
72285;BME280;60220;53.552;10.092;2022-11-11T11:52:38;102649.13;;;10.89;77.61
72285;BME280;60220;53.552;10.092;2022-11-11T11:55:13;102640.78;;;11.14;76.31
72285;BME280;60220;53.552;10.092;2022-11-11T11:57:51;102636.06;;;11.53;74.89
72285;BME280;60220;53.552;10.092;2022-11-11T12:00:21;102643.38;;;11.12;76.26
72285;BME280;60220;53.552;10.092;2022-11-11T12:03:16;102639.63;;;10.44;78.83
72285;BME280;60220;53.552;10.092;2022-11-11T12:05:54;102636.78;;;11.40;75.80
72285;BME280;60220;53.552;10.092;2022-11-11T12:08:39;102637.38;;;10.65;77.71
72285;BME280;60220;53.552;10.092;2022-11-11T12:11:14;102621.91;;;11.42;75.21
72285;BME280;60220;53.552;10.092;2022-11-11T12:13:57;102627.75;;;11.85;74.00
72285;BME280;60220;53.552;10.092;2022-11-11T12:16:34;102630.34;;;11.18;75.58
72285;BME280;60220;53.552;10.092;2022-11-11T12:19:24;102637.25;;;11.13;75.31
72285;BME280;60220;53.552;10.092;2022-11-11T12:22:01;102639.22;;;11.28;75.80
72285;BME280;60220;53.552;10.092;2022-11-11T12:24:44;102639.22;;;11.28;75.36
72285;BME280;60220;53.552;10.092;2022-11-11T12:27:19;102639.34;;;11.37;76.90
72285;BME280;60220;53.552;10.092;2022-11-11T12:29:58;102646.06;;;11.15;76.51
72285;BME280;60220;53.552;10.092;2022-11-11T12:32:38;102639.38;;;10.82;76.94
72285;BME280;60220;53.552;10.092;2022-11-11T12:35:20;102637.38;;;11.21;75.17
72285;BME280;60220;53.552;10.092;2022-11-11T12:37:56;102642.47;;;11.12;75.74
72285;BME280;60220;53.552;10.092;2022-11-11T12:40:35;102645.69;;;11.51;74.60
72285;BME280;60220;53.552;10.092;2022-11-11T12:43:17;102638.56;;;12.09;73.25
72285;BME280;60220;53.552;10.092;2022-11-11T12:45:51;102650.78;;;11.39;74.04
72285;BME280;60220;53.552;10.092;2022-11-11T12:48:39;102649.03;;;12.06;72.45
72285;BME280;60220;53.552;10.092;2022-11-11T12:51:18;102636.75;;;12.05;72.32
72285;BME280;60220;53.552;10.092;2022-11-11T12:53:53;102640.19;;;12.01;72.24
72285;BME280;60220;53.552;10.092;2022-11-11T12:56:30;102628.66;;;11.88;73.48
72285;BME280;60220;53.552;10.092;2022-11-11T12:59:04;102634.69;;;11.80;73.08
72285;BME280;60220;53.552;10.092;2022-11-11T13:01:48;102635.09;;;12.16;72.22
72285;BME280;60220;53.552;10.092;2022-11-11T13:07:41;102640.44;;;12.22;71.19
72285;BME280;60220;53.552;10.092;2022-11-11T13:10:18;102640.59;;;12.40;70.95
72285;BME280;60220;53.552;10.092;2022-11-11T13:12:56;102638.81;;;12.33;71.03